Have a Safe July 4th! 

Flight Track Log - Related Links

Times and Time Zones

All times are in EDT time to prevent confusion due to time zone crossing. See the N680AN flight status page for this flight to view local times or setup timezone preferences in your user account.

Time Position Orientation Groundspeed Altitude Reporting Facility
EDT Latitude Longitude Course Direction KTS MPH feet Rate Location/Type
Fri 08:19:06 AM 28.4167 -81.3333 270° West 173 199 800  Level Orlando TRACON
Fri 08:20:12 AM 28.3500 -81.3500 192° South 270 311 3,200 2,619 Climbing Orlando TRACON
Fri 08:21:00 AM 28.4167 -81.6472 270° West  Level FlightAware Approximate
Fri 08:21:12 AM 28.3333 -81.4333 257° West 271 312 6,300  Level Orlando TRACON
Fri 08:22:00 AM 28.4167 -81.7629 270° West  Level FlightAware Approximate
Fri 08:22:18 AM 28.3167 -81.5167 257° West 285 328 9,300  Level Orlando TRACON
Fri 08:23:00 AM 28.4167 -81.8787 270° West  Level FlightAware Approximate
Fri 08:24:00 AM 28.4167 -81.9944 270° West  Level FlightAware Approximate
Fri 08:24:15 AM 28.3136 -81.7303 269° West 347 399 13,900  Level Jacksonville Center
Fri 08:25:16 AM 28.3272 -81.8478 278° West 368 423 16,300 2,182 Climbing Jacksonville Center
Fri 08:26:16 AM 28.3658 -81.9678 290° West 389 448 18,300 2,200 Climbing Jacksonville Center
Fri 08:27:16 AM 28.4042 -82.0950 289° West 400 460 20,700 2,350 Climbing Jacksonville Center
Fri 08:28:16 AM 28.4444 -82.2222 290° West 422 486 23,000 2,269 Climbing Jacksonville Center
Fri 08:29:15 AM 28.4869 -82.3517 291° West 432 497 25,200 2,017 Climbing Jacksonville Center
Fri 08:30:15 AM 28.5561 -82.4647 305° West 432 497 27,000 2,033 Climbing Jacksonville Center
Fri 08:31:16 AM 28.6567 -82.5567 321° Northwest 438 504 29,300 2,281 Climbing Jacksonville Center
Fri 08:32:16 AM 28.7403 -82.6322 322° Northwest 433 498 31,600 2,300 Climbing Jacksonville Center
Fri 08:33:16 AM 28.8344 -82.7194 321° Northwest 433 498 33,900 2,118 Climbing Jacksonville Center
Fri 08:34:15 AM 28.9219 -82.8025 320° Northwest 428 493 35,800 1,059 Climbing Jacksonville Center
Fri 08:35:15 AM 29.0078 -82.8856 320° Northwest 416 479 36,000 100 Climbing Jacksonville Center
Fri 08:36:15 AM 29.0953 -82.9686 320° Northwest 411 473 36,000  Level Jacksonville Center
Fri 08:37:16 AM 29.1850 -83.0519 321° Northwest 411 473 36,000  Level Jacksonville Center
Fri 08:38:16 AM 29.2808 -83.1450 320° Northwest 411 473 36,000  Level Jacksonville Center
Fri 08:39:16 AM 29.3706 -83.2308 320° Northwest 411 473 36,000  Level Jacksonville Center
Fri 08:40:16 AM 29.4600 -83.3147 321° Northwest 411 473 36,000  Level Jacksonville Center
Fri 08:41:16 AM 29.5494 -83.4011 320° Northwest 416 479 36,000  Level Jacksonville Center
Fri 08:42:16 AM 29.6389 -83.4828 322° Northwest 416 479 36,000  Level Jacksonville Center
Fri 08:43:16 AM 29.7281 -83.5694 320° Northwest 416 479 36,000  Level Jacksonville Center
Fri 08:44:16 AM 29.8153 -83.6514 321° Northwest 416 479 36,000  Level Jacksonville Center
Fri 08:45:16 AM 29.9047 -83.7361 321° Northwest 416 479 36,000  Level Jacksonville Center
Fri 08:46:16 AM 29.9939 -83.8231 320° Northwest 416 479 36,000  Level Jacksonville Center
Fri 08:47:16 AM 30.0808 -83.9056 321° Northwest 416 479 36,000  Level Jacksonville Center
Fri 08:48:16 AM 30.1678 -83.9931 319° Northwest 416 479 36,000  Level Jacksonville Center
Fri 08:49:15 AM 30.2547 -84.0781 320° Northwest 411 473 36,000  Level Jacksonville Center
Fri 08:50:16 AM 30.3417 -84.1611 321° Northwest 411 473 36,000  Level Jacksonville Center
Fri 08:51:16 AM 30.4306 -84.2464 320° Northwest 411 473 36,000  Level Jacksonville Center
Fri 08:52:16 AM 30.5153 -84.3297 320° Northwest 411 473 36,000  Level Jacksonville Center
Fri 08:53:16 AM 30.5661 -84.4367 299° West 391 450 36,000  Level Jacksonville Center
Fri 08:54:16 AM 30.5833 -84.5647 279° West 376 433 36,000  Level Jacksonville Center
Fri 08:55:16 AM 30.6003 -84.6906 279° West 386 444 36,000  Level Jacksonville Center
Fri 08:56:16 AM 30.6153 -84.8164 278° West 397 457 36,000  Level Jacksonville Center
Fri 08:57:15 AM 30.6322 -84.9422 279° West 397 457 36,000  Level Jacksonville Center
Fri 08:58:16 AM 30.6489 -85.0681 279° West 397 457 36,000  Level Jacksonville Center
Fri 08:59:16 AM 30.6633 -85.1942 278° West 397 457 36,000  Level Jacksonville Center
Fri 09:00:15 AM 30.6797 -85.3178 279° West 397 457 36,000  Level Jacksonville Center
Fri 09:01:16 AM 30.6981 -85.4461 279° West 392 451 36,000  Level Jacksonville Center
Fri 09:02:15 AM 30.7144 -85.5697 279° West 392 451 36,000  Level Jacksonville Center
Fri 09:03:16 AM 30.7283 -85.6958 277° West 392 451 36,000  Level Jacksonville Center
Fri 09:04:15 AM 30.7447 -85.8100 280° West 392 451 36,000  Level Jacksonville Center
Fri 09:05:16 AM 30.7583 -85.9361 277° West 392 451 36,000  Level Jacksonville Center
Fri 09:06:16 AM 30.7761 -86.0600 280° West 392 451 36,000  Level Jacksonville Center
Fri 09:07:16 AM 30.7919 -86.1814 279° West 392 451 36,000  Level Jacksonville Center
Fri 09:08:16 AM 30.8053 -86.3100 277° West 392 451 36,000  Level Jacksonville Center
Fri 09:09:16 AM 30.8206 -86.4364 278° West 392 451 36,000  Level Jacksonville Center
Fri 09:10:15 AM 30.8378 -86.5628 279° West 392 451 36,000  Level Jacksonville Center
Fri 09:11:16 AM 30.8550 -86.6867 279° West 392 451 36,000  Level Jacksonville Center
Fri 09:12:16 AM 30.8700 -86.8156 278° West 392 451 36,000  Level Jacksonville Center
Fri 09:14:33 AM 30.9028 -87.1114 277° West 395 455 36,000  Level Houston Center
Fri 09:15:35 AM 30.9164 -87.2381 277° West 396 456 36,000  Level Houston Center
Fri 09:16:36 AM 30.9308 -87.3636 278° West 393 452 36,000  Level Houston Center
Fri 09:17:38 AM 30.9450 -87.4906 277° West 395 455 36,000  Level Houston Center
Fri 09:18:40 AM 30.9600 -87.6172 278° West 396 456 36,000  Level Houston Center
Fri 09:19:42 AM 30.9747 -87.7594 277° West 395 455 36,000  Level Houston Center
Fri 09:20:43 AM 30.9886 -87.8861 277° West 395 455 36,000  Level Houston Center
Fri 09:21:45 AM 31.0019 -88.0122 277° West 395 455 36,000  Level Houston Center
Fri 09:22:47 AM 31.0111 -88.1386 275° West 393 452 36,000  Level Houston Center
Fri 09:23:49 AM 31.0203 -88.2675 275° West 399 459 36,000  Level Houston Center
Fri 09:24:50 AM 31.0317 -88.4208 275° West 397 457 36,000  Level Houston Center
Fri 09:25:52 AM 31.0397 -88.5492 274° West 398 458 36,000  Level Houston Center
Fri 09:26:54 AM 31.0472 -88.6744 274° West 397 457 36,000  Level Houston Center
Fri 09:27:56 AM 31.0564 -88.8017 275° West 396 456 36,000  Level Houston Center
Fri 09:28:58 AM 31.0647 -88.9306 274° West 395 455 36,000  Level Houston Center
Fri 09:29:59 AM 31.0736 -89.0581 275° West 395 455 36,000  Level Houston Center
Fri 09:31:01 AM 31.0828 -89.2106 274° West 395 455 36,000  Level Houston Center
Fri 09:32:03 AM 31.0908 -89.3381 274° West 396 456 36,000  Level Houston Center
Fri 09:33:05 AM 31.1000 -89.4658 275° West 397 457 36,000  Level Houston Center
Fri 09:34:06 AM 31.1081 -89.5936 274° West 397 457 36,000  Level Houston Center
Fri 09:35:08 AM 31.1161 -89.7222 274° West 398 458 36,000  Level Houston Center
Fri 09:36:10 AM 31.1244 -89.8503 274° West 397 457 36,000  Level Houston Center
Fri 09:37:11 AM 31.1342 -90.0044 274° West 397 457 36,000  Level Houston Center
Fri 09:38:13 AM 31.1414 -90.1322 274° West 395 455 36,000  Level Houston Center
Fri 09:39:15 AM 31.1489 -90.2606 274° West 396 456 36,000  Level Houston Center
Fri 09:40:16 AM 31.1569 -90.3886 274° West 396 456 36,000  Level Houston Center
Fri 09:41:18 AM 31.1656 -90.5167 275° West 396 456 36,000  Level Houston Center
Fri 09:42:20 AM 31.1719 -90.6442 273° West 394 453 36,000  Level Houston Center
Fri 09:43:21 AM 31.1803 -90.7733 274° West 398 458 36,000  Level Houston Center
Fri 09:44:23 AM 31.1867 -90.9272 273° West 394 453 36,000  Level Houston Center
Fri 09:45:25 AM 31.1944 -91.0556 274° West 394 453 36,000  Level Houston Center
Fri 09:46:26 AM 31.2025 -91.1831 274° West 393 452 36,000  Level Houston Center
Fri 09:47:28 AM 31.2083 -91.3119 273° West 397 457 36,000  Level Houston Center
Fri 09:48:30 AM 31.2139 -91.4367 273° West 399 459 36,000  Level Houston Center
Fri 09:49:31 AM 31.2178 -91.5936 272° West 402 463 36,000  Level Houston Center
Fri 09:50:33 AM 31.2239 -91.7219 273° West 398 458 36,000  Level Houston Center
Fri 09:51:35 AM 31.2294 -91.8494 273° West 395 455 36,000  Level Houston Center
Fri 09:52:36 AM 31.2353 -91.9783 273° West 396 456 36,000  Level Houston Center
Fri 09:53:38 AM 31.2389 -92.1025 272° West 391 450 36,000  Level Houston Center
Fri 09:54:39 AM 31.2458 -92.2308 274° West 396 456 36,000  Level Houston Center
Fri 09:55:41 AM 31.2511 -92.3592 273° West 397 457 36,000  Level Houston Center
Fri 09:56:43 AM 31.2614 -92.5119 275° West 396 456 36,000  Level Houston Center
Fri 09:57:44 AM 31.3061 -92.6314 294° West 405 466 36,000  Level Houston Center
Fri 09:58:46 AM 31.3528 -92.7517 294° West 407 468 36,000  Level Houston Center
Fri 09:59:48 AM 31.3969 -92.8697 294° West 401 461 36,000  Level Houston Center
Fri 10:00:49 AM 31.4414 -92.9883 294° West 400 460 36,000  Level Houston Center
Fri 10:01:51 AM 31.4875 -93.1089 294° West 405 466 36,000  Level Houston Center
Fri 10:02:52 AM 31.5408 -93.2522 294° West 403 464 36,000  Level Houston Center
Fri 10:03:54 AM 31.5844 -93.3681 294° West 406 467 36,000  Level Houston Center
Fri 10:04:56 AM 31.6281 -93.4875 293° West 402 463 36,000  Level Houston Center
Fri 10:05:30 AM 31.6536 -93.5625 292° West 410 472 36,000  Level Fort Worth Center
Fri 10:06:30 AM 31.6969 -93.6828 293° West 405 466 36,000  Level Fort Worth Center
Fri 10:07:31 AM 31.7442 -93.8006 295° West 405 466 36,000  Level Fort Worth Center
Fri 10:08:30 AM 31.7706 -93.9239 284° West 405 466 36,000  Level Fort Worth Center
Fri 10:09:30 AM 31.7928 -94.0503 282° West 398 458 36,000  Level Fort Worth Center
Fri 10:10:30 AM 31.8189 -94.1717 284° West 391 450 36,000  Level Fort Worth Center
Fri 10:11:30 AM 31.8431 -94.2978 283° West 391 450 36,000  Level Fort Worth Center
Fri 10:12:30 AM 31.8689 -94.4217 284° West 391 450 36,000  Level Fort Worth Center
Fri 10:13:30 AM 31.8906 -94.5458 282° West 391 450 36,000  Level Fort Worth Center
Fri 10:14:30 AM 31.9164 -94.6722 284° West 391 450 36,000 -200 Level Fort Worth Center
Fri 10:15:30 AM 31.9400 -94.7964 283° West 391 450 35,600 -1,000 Descending Fort Worth Center
Fri 10:16:30 AM 31.9633 -94.9231 282° West 391 450 34,000 -1,600 Descending Fort Worth Center
Fri 10:17:30 AM 31.9867 -95.0497 282° West 391 450 32,400 -1,550 Descending Fort Worth Center
Fri 10:18:30 AM 32.0100 -95.1814 282° West 398 458 30,900 -1,289 Descending Fort Worth Center
Fri 10:19:31 AM 32.0331 -95.3156 281° West 410 472 29,800 -1,000 Descending Fort Worth Center
Fri 10:20:30 AM 32.0603 -95.4522 283° West 420 483 28,900 -857 Descending Fort Worth Center
Fri 10:21:30 AM 32.0958 -95.5864 287° West 425 489 28,100 -1,850 Descending Fort Worth Center
Fri 10:22:30 AM 32.1372 -95.7108 291° West 425 489 25,200 -2,650 Descending Fort Worth Center
Fri 10:23:30 AM 32.1828 -95.8472 292° West 413 475 22,800 -2,100 Descending Fort Worth Center
Fri 10:24:30 AM 32.2194 -95.9572 292° West 408 470 21,000 -1,835 Descending Fort Worth Center
Fri 10:25:31 AM 32.2628 -96.0892 291° West 403 464 19,100 -1,650 Descending Fort Worth Center
Fri 10:26:30 AM 32.2994 -96.1967 292° West 397 457 17,700 -1,563 Descending Fort Worth Center
Fri 10:27:30 AM 32.3403 -96.3217 291° West 390 449 16,000 -1,438 Descending Fort Worth Center
Fri 10:28:31 AM 32.3722 -96.4172 292° West 369 425 14,800 -1,600 Descending Fort Worth Center
Fri 10:29:30 AM 32.4336 -96.5125 307° West 338 389 12,800 -1,866 Descending Fort Worth Center
Fri 10:30:30 AM 32.4925 -96.5833 315° West 333 383 11,100 -900 Descending Fort Worth Center
Fri 10:31:30 AM 32.5556 -96.6617 314° West 306 352 11,000 -50 Descending Fort Worth Center
Fri 10:32:31 AM 32.6039 -96.7206 314° West 283 326 11,000  Level Fort Worth Center
Fri 10:33:30 AM 32.6647 -96.7939 315° West 283 326 11,000  Level Fort Worth Center
Fri 10:34:21 AM 32.7167 -96.8500 318° Northwest 297 342 11,000  Level Dallas / Fort Worth TRACON
Fri 10:35:21 AM 32.7833 -96.9000 328° Northwest 264 304 11,000 -579 Level Dallas / Fort Worth TRACON
Fri 10:36:15 AM 32.8333 -96.9000 360° North 274 315 9,900 -1,737 Descending Dallas / Fort Worth TRACON
Fri 10:37:15 AM 32.9167 -96.9000 360° North 281 323 7,700 -1,526 Descending Dallas / Fort Worth TRACON
Fri 10:38:09 AM 32.9833 -96.9000 360° North 263 303 7,000 -365 Descending Dallas / Fort Worth TRACON
Fri 10:39:10 AM 33.0667 -96.9000 360° North 261 300 7,000  Level Dallas / Fort Worth TRACON
Fri 10:40:10 AM 33.1333 -96.9000 360° North 262 302 7,000 -148 Level Dallas / Fort Worth TRACON
Fri 10:40:31 AM 33.1558 -96.9097 340° North 259 298 6,800 -842 Descending Fort Worth Center
Fri 10:42:04 AM 33.2167 -96.9667 322° Northwest 213 245 5,400 -706 Descending Dallas / Fort Worth TRACON
Fri 10:43:04 AM 33.1833 -97.0167 231° Southwest 193 222 5,000 -248 Descending Dallas / Fort Worth TRACON
Fri 10:44:05 AM 33.1333 -97.0333 196° South 165 190 4,900 -98 Descending Dallas / Fort Worth TRACON

Login

Don't have an account? Register now (free) for customized features, flight alerts, and more!